Time;durP1;ratioP1;P1;durP2;ratioP2;P2;SDS_P1;SDS_P2;PMS_P1;PMS_P2;Temp;Humidity;BMP_temperature;BMP_pressure;BME280_temperature;BME280_humidity;BME280_pressure;Samples;Min_cycle;Max_cycle;Signal;HPM_P1;HPM_P2
2023/09/11 00:00:37;;;;;;;17.23;14.98;;;;;;;17.65;69.87;100981.03;7398643;19;20031;-69
2023/09/11 00:03:06;;;;;;;17.05;15.20;;;;;;;17.57;70.27;100980.56;7397857;19;20086;-69
2023/09/11 00:05:35;;;;;;;17.15;14.60;;;;;;;17.51;70.49;100972.88;7399340;19;20023;-70
2023/09/11 00:08:03;;;;;;;19.40;15.43;;;;;;;17.44;70.43;100977.63;7400584;19;20024;-68
2023/09/11 00:10:32;;;;;;;17.17;14.52;;;;;;;17.43;70.69;100973.25;7397600;19;20033;-70
2023/09/11 00:13:01;;;;;;;14.93;13.32;;;;;;;17.41;70.71;100965.38;7397714;19;20011;-69
2023/09/11 00:15:34;;;;;;;16.48;13.75;;;;;;;17.42;70.89;100968.88;7397989;19;20022;-70
2023/09/11 00:18:03;;;;;;;28.80;14.97;;;;;;;17.43;70.98;100965.28;7397552;19;20002;-69
2023/09/11 00:20:31;;;;;;;16.45;14.02;;;;;;;17.42;71.04;100964.41;7397753;19;20031;-68
2023/09/11 00:22:59;;;;;;;14.88;13.07;;;;;;;17.41;70.97;100959.19;7397539;19;20018;-69
2023/09/11 00:25:28;;;;;;;14.15;12.65;;;;;;;17.39;70.84;100953.97;7397026;19;20015;-68
2023/09/11 00:27:57;;;;;;;16.40;12.40;;;;;;;17.38;70.96;100957.53;7397381;19;20028;-69
2023/09/11 00:30:25;;;;;;;14.43;11.23;;;;;;;17.36;71.14;100956.78;7397111;19;20015;-69
2023/09/11 00:32:57;;;;;;;14.30;12.77;;;;;;;17.35;71.31;100955.03;7397294;19;20082;-69
2023/09/11 00:35:25;;;;;;;13.52;11.93;;;;;;;17.34;70.90;100948.00;7397052;19;20018;-68
2023/09/11 00:37:54;;;;;;;14.68;12.35;;;;;;;17.36;71.31;100953.25;7397289;19;20010;-69
2023/09/11 00:40:22;;;;;;;13.93;12.52;;;;;;;17.34;71.10;100952.44;7397260;19;20036;-69
2023/09/11 00:42:51;;;;;;;13.50;12.18;;;;;;;17.33;71.12;100954.25;7396616;19;20557;-69
2023/09/11 00:45:19;;;;;;;14.20;12.60;;;;;;;17.32;71.35;100946.38;7398009;19;20481;-69
2023/09/11 00:47:50;;;;;;;15.25;12.85;;;;;;;17.32;71.26;100941.91;7399139;19;20010;-70
2023/09/11 00:50:22;;;;;;;14.82;13.32;;;;;;;17.30;71.19;100949.09;7399681;19;20033;-70
2023/09/11 00:52:51;;;;;;;13.55;11.73;;;;;;;17.29;71.50;100952.69;7399151;19;20014;-68
2023/09/11 00:55:20;;;;;;;14.77;12.20;;;;;;;17.26;71.59;100942.19;7398034;19;20090;-69
2023/09/11 00:57:49;;;;;;;17.58;13.38;;;;;;;17.23;71.53;100947.66;7398461;19;20007;-70
2023/09/11 01:00:17;;;;;;;13.35;11.95;;;;;;;17.18;71.18;100941.72;7398764;19;20017;-69
2023/09/11 01:02:46;;;;;;;14.57;11.98;;;;;;;17.16;71.36;100940.91;7396433;19;20086;-69
2023/09/11 01:05:15;;;;;;;17.77;12.48;;;;;;;17.12;71.73;100934.88;7396468;19;20032;-69
2023/09/11 01:07:46;;;;;;;13.98;12.57;;;;;;;17.08;71.45;100934.16;7398462;19;20027;-69
2023/09/11 01:10:14;;;;;;;14.88;11.18;;;;;;;17.06;71.58;100932.50;7399071;19;20062;-69
2023/09/11 01:12:43;;;;;;;14.57;11.73;;;;;;;17.03;71.77;100932.66;7396297;19;20023;-69
2023/09/11 01:15:13;;;;;;;13.55;12.20;;;;;;;16.99;71.49;100925.78;7397610;19;20014;-70
2023/09/11 01:17:46;;;;;;;16.25;12.27;;;;;;;16.96;71.78;100928.56;7396169;19;20010;-71
2023/09/11 01:20:54;;;;;;;14.02;12.15;;;;;;;16.91;72.11;100921.69;7396730;19;20052;-71
2023/09/11 01:23:52;;;;;;;15.30;12.85;;;;;;;16.86;71.84;100922.81;7397216;19;20018;-69
2023/09/11 01:26:41;;;;;;;13.45;12.05;;;;;;;16.81;71.72;100914.19;7395347;19;20027;-70
2023/09/11 01:29:15;;;;;;;12.77;11.38;;;;;;;16.75;71.77;100918.84;7396443;19;20086;-69
2023/09/11 01:31:45;;;;;;;;;;;;;;;16.72;71.62;100916.34;7397056;19;20090;-69
2023/09/11 01:34:14;;;;;;;13.70;12.20;;;;;;;16.67;71.73;100915.69;7395971;19;19919;-69
2023/09/11 01:36:49;;;;;;;13.60;11.65;;;;;;;16.62;72.10;100915.03;7394650;19;20024;-69
2023/09/11 01:39:18;;;;;;;14.63;12.15;;;;;;;16.58;71.78;100916.06;7395488;19;20395;-69
2023/09/11 01:41:48;;;;;;;14.70;12.60;;;;;;;16.54;72.00;100917.13;7395897;19;20018;-69
2023/09/11 01:44:26;;;;;;;19.45;13.93;;;;;;;16.51;72.21;100914.66;7395960;19;20027;-69
2023/09/11 01:46:57;;;;;;;15.77;13.88;;;;;;;16.48;72.39;100914.75;7395480;19;20011;-69
2023/09/11 01:49:26;;;;;;;16.88;13.07;;;;;;;16.47;72.60;100910.38;7395504;19;20027;-69
2023/09/11 01:51:55;;;;;;;13.63;12.23;;;;;;;16.42;72.63;100908.81;7394995;19;20010;-69
2023/09/11 01:54:25;;;;;;;15.35;13.43;;;;;;;16.39;72.54;100908.06;7395449;19;20019;-68
2023/09/11 01:56:54;;;;;;;13.93;12.45;;;;;;;16.36;72.97;100913.53;7395180;19;20038;-69
2023/09/11 01:59:26;;;;;;;15.55;13.23;;;;;;;16.32;72.84;100911.94;7395173;19;20015;-69
2023/09/11 02:01:55;;;;;;;14.07;12.65;;;;;;;16.29;73.12;100907.63;7395626;19;20031;-69
2023/09/11 02:04:23;;;;;;;14.38;12.63;;;;;;;16.26;73.30;100899.81;7393177;19;20018;-68
2023/09/11 02:06:52;;;;;;;14.85;12.65;;;;;;;16.20;73.46;100898.31;7394526;19;20028;-69
2023/09/11 02:09:20;;;;;;;14.48;12.35;;;;;;;16.19;73.45;100909.81;7395071;19;20014;-68
2023/09/11 02:11:49;;;;;;;16.05;12.52;;;;;;;16.15;73.41;100904.69;7394449;19;20388;-70
2023/09/11 02:14:17;;;;;;;15.57;12.77;;;;;;;16.09;73.60;100905.84;7394772;19;20094;-68
2023/09/11 02:16:48;;;;;;;13.75;12.35;;;;;;;16.05;73.94;100902.47;7394282;19;20419;-68
2023/09/11 02:19:17;;;;;;;12.98;11.65;;;;;;;16.00;73.75;100912.38;7395116;19;20014;-68
2023/09/11 02:21:45;;;;;;;13.88;12.35;;;;;;;15.96;74.16;100911.63;7395816;19;20366;-69
2023/09/11 02:24:14;;;;;;;14.52;12.95;;;;;;;15.92;74.00;100914.47;7401535;19;20020;-68
2023/09/11 02:26:42;;;;;;;14.13;12.48;;;;;;;15.89;74.15;100909.31;7401099;19;20015;-69
2023/09/11 02:29:11;;;;;;;15.27;13.70;;;;;;;15.84;74.08;100906.84;7394943;19;20477;-69
2023/09/11 02:31:39;;;;;;;13.77;12.20;;;;;;;15.80;73.91;100907.88;7397587;19;20015;-70
2023/09/11 02:34:10;;;;;;;15.35;13.75;;;;;;;15.76;74.43;100904.50;7393676;19;20011;-69
2023/09/11 02:36:39;;;;;;;13.70;12.30;;;;;;;15.73;74.42;100906.41;7393500;19;20018;-69
2023/09/11 02:39:07;;;;;;;14.60;13.10;;;;;;;15.71;74.30;100902.94;7393462;19;20478;-69
2023/09/11 02:41:36;;;;;;;13.90;12.23;;;;;;;15.66;74.52;100903.16;7395522;19;20019;-70
2023/09/11 02:44:04;;;;;;;14.43;12.77;;;;;;;15.63;74.37;100911.19;7394415;19;20014;-70
2023/09/11 02:46:33;;;;;;;13.27;11.95;;;;;;;15.59;74.55;100912.25;7393977;19;20027;-69
2023/09/11 02:49:01;;;;;;;15.38;13.43;;;;;;;15.55;74.48;100908.00;7393205;19;20015;-69
2023/09/11 02:51:32;;;;;;;14.55;13.10;;;;;;;15.52;74.28;100908.13;7392631;19;20006;-69
2023/09/11 02:54:01;;;;;;;13.98;12.48;;;;;;;15.48;74.36;100907.41;7395451;19;20014;-69
2023/09/11 02:56:29;;;;;;;14.00;12.50;;;;;;;15.43;74.40;100904.94;7393812;19;20082;-69
2023/09/11 02:58:59;;;;;;;14.63;13.23;;;;;;;15.42;74.36;100905.00;7393196;19;20087;-70
2023/09/11 03:01:27;;;;;;;14.25;12.57;;;;;;;15.40;74.44;100914.75;7394972;19;20037;-69
2023/09/11 03:03:55;;;;;;;14.55;12.98;;;;;;;15.37;74.47;100909.59;7392562;19;20026;-69
2023/09/11 03:06:24;;;;;;;15.45;13.70;;;;;;;15.36;74.43;100910.53;7392863;19;20078;-69
2023/09/11 03:08:55;;;;;;;16.30;13.55;;;;;;;15.33;74.57;100911.50;7392983;19;20074;-70
2023/09/11 03:11:23;;;;;;;15.02;13.43;;;;;;;15.32;74.77;100909.78;7393479;19;20036;-69
2023/09/11 03:13:52;;;;;;;15.63;12.68;;;;;;;15.30;74.46;100901.91;7393051;19;20014;-70
2023/09/11 03:16:21;;;;;;;14.73;13.23;;;;;;;15.28;74.54;100902.91;7395105;19;20098;-69
2023/09/11 03:18:49;;;;;;;12.90;11.65;;;;;;;15.26;74.58;100902.09;7399005;19;20421;-69
2023/09/11 03:21:17;;;;;;;13.65;12.27;;;;;;;15.24;74.72;100907.44;7398953;19;20481;-69
2023/09/11 03:23:46;;;;;;;14.43;12.90;;;;;;;15.23;74.92;100907.50;7400368;19;20014;-70
2023/09/11 03:26:18;;;;;;;15.80;13.43;;;;;;;15.19;74.79;100897.94;7398546;19;20094;-69
2023/09/11 03:28:50;;;;;;;15.48;13.88;;;;;;;15.18;75.02;100899.75;7399371;19;20078;-69
2023/09/11 03:31:18;;;;;;;14.90;12.80;;;;;;;15.17;75.12;100905.09;7398648;19;20481;-70
2023/09/11 03:33:47;;;;;;;17.13;13.50;;;;;;;15.14;74.86;100896.34;7401307;19;20372;-69
2023/09/11 03:36:17;;;;;;;15.18;13.30;;;;;;;15.13;74.89;100897.25;7398955;19;20014;-70
2023/09/11 03:38:45;;;;;;;15.15;13.65;;;;;;;15.11;74.80;100895.59;7398328;19;20017;-70
2023/09/11 03:41:16;;;;;;;17.42;13.88;;;;;;;15.10;74.99;100891.22;7398348;19;20010;-69
2023/09/11 03:43:45;;;;;;;14.32;12.88;;;;;;;15.08;75.39;100893.94;7398334;19;20062;-69
2023/09/11 03:46:14;;;;;;;15.43;13.82;;;;;;;15.06;75.25;100889.63;7398208;19;20027;-69
2023/09/11 03:48:43;;;;;;;15.68;14.07;;;;;;;15.04;75.39;100894.97;7398502;19;20014;-69
2023/09/11 03:51:12;;;;;;;15.85;14.20;;;;;;;15.01;75.29;100889.78;7401110;19;20007;-69
2023/09/11 03:53:42;;;;;;;15.10;13.50;;;;;;;14.98;75.44;100888.13;7401487;19;20070;-69
2023/09/11 03:56:11;;;;;;;14.68;13.10;;;;;;;14.97;75.57;100885.56;7399843;19;20021;-69
2023/09/11 03:58:44;;;;;;;14.48;12.63;;;;;;;14.94;75.70;100889.19;7398265;19;20006;-69
2023/09/11 04:01:13;;;;;;;13.93;12.13;;;;;;;14.92;75.69;100885.72;7398674;19;20018;-68
2023/09/11 04:03:42;;;;;;;15.98;12.98;;;;;;;14.89;75.61;100880.56;7398756;19;20074;-70
2023/09/11 04:06:11;;;;;;;14.65;13.18;;;;;;;14.87;75.84;100879.75;7397822;19;20043;-71
2023/09/11 04:08:39;;;;;;;14.00;12.50;;;;;;;14.83;75.75;100881.63;7397905;19;20015;-70
2023/09/11 04:11:08;;;;;;;14.45;12.95;;;;;;;14.81;76.03;100878.22;7398169;19;20073;-68
2023/09/11 04:13:36;;;;;;;17.42;12.57;;;;;;;14.78;75.90;100880.09;7397523;19;20082;-71
2023/09/11 04:16:07;;;;;;;16.70;13.75;;;;;;;14.75;76.09;100873.16;7397594;19;20074;-69
2023/09/11 04:18:36;;;;;;;19.23;13.30;;;;;;;14.73;76.12;100871.50;7399477;19;20066;-69
2023/09/11 04:21:05;;;;;;;19.58;14.07;;;;;;;14.71;76.14;100874.19;7399241;19;20373;-68
2023/09/11 04:23:33;;;;;;;16.23;14.52;;;;;;;14.69;76.22;100868.09;7399099;19;20089;-71
2023/09/11 04:26:02;;;;;;;17.27;13.07;;;;;;;14.67;76.46;100867.28;7397462;19;20070;-70
2023/09/11 04:28:30;;;;;;;14.88;13.27;;;;;;;14.61;76.36;100860.44;7398867;19;20018;-69
2023/09/11 04:30:59;;;;;;;14.18;12.10;;;;;;;14.63;76.31;100868.28;7397269;19;20090;-70
2023/09/11 04:33:30;;;;;;;21.77;13.35;;;;;;;14.59;76.62;100856.13;7398526;19;20549;-69
2023/09/11 04:35:58;;;;;;;21.25;13.90;;;;;;;14.57;76.57;100865.88;7396024;19;20383;-71
2023/09/11 04:38:27;;;;;;;41.10;25.80;;;;;;;14.53;76.45;100864.28;7396231;19;20022;-70
2023/09/11 04:40:59;;;;;;;28.55;19.92;;;;;;;14.50;76.57;100866.09;7395590;19;20078;-68
2023/09/11 04:43:28;;;;;;;20.35;14.55;;;;;;;14.47;76.69;100860.94;7396072;19;20014;-69
2023/09/11 04:45:56;;;;;;;19.38;14.48;;;;;;;14.46;76.66;100866.28;7395755;19;20070;-70
2023/09/11 04:48:24;;;;;;;22.85;15.73;;;;;;;14.43;76.63;100866.38;7399004;19;20082;-70
2023/09/11 04:50:55;;;;;;;18.63;14.50;;;;;;;14.42;76.90;100875.19;7395386;19;20023;-68
2023/09/11 04:53:24;;;;;;;16.17;14.48;;;;;;;14.41;77.11;100865.59;7396665;19;20018;-68
2023/09/11 04:55:52;;;;;;;20.25;15.55;;;;;;;14.39;76.85;100870.91;7397651;19;20044;-69
2023/09/11 04:58:21;;;;;;;20.50;16.98;;;;;;;14.39;76.89;100878.81;7394986;19;20018;-69
2023/09/11 05:00:50;;;;;;;19.98;17.42;;;;;;;14.40;77.14;100871.78;7395230;19;20035;-68
2023/09/11 05:03:18;;;;;;;18.67;16.35;;;;;;;14.39;77.10;100864.78;7396227;19;20091;-70
2023/09/11 05:05:47;;;;;;;18.98;16.15;;;;;;;14.40;77.60;100863.84;7394043;19;20514;-70
2023/09/11 05:08:18;;;;;;;27.35;16.95;;;;;;;14.41;77.60;100871.72;7396645;19;20078;-70
2023/09/11 05:10:47;;;;;;;19.52;16.10;;;;;;;14.43;77.53;100861.97;7394968;19;20077;-69
2023/09/11 05:13:17;;;;;;;19.40;16.20;;;;;;;14.44;77.39;100862.81;7394916;19;20031;-70
2023/09/11 05:15:48;;;;;;;23.15;15.75;;;;;;;14.45;77.65;100862.75;7395985;19;20087;-70
2023/09/11 05:18:16;;;;;;;22.35;17.17;;;;;;;14.47;77.43;100868.84;7394963;19;20015;-70
2023/09/11 05:20:46;;;;;;;25.95;19.10;;;;;;;14.49;77.62;100861.75;7396560;19;20103;-69
2023/09/11 05:23:14;;;;;;;21.48;15.63;;;;;;;14.52;77.63;100867.81;7395928;19;20045;-69
2023/09/11 05:25:46;;;;;;;20.00;17.88;;;;;;;14.56;77.52;100870.31;7393964;19;20545;-68
2023/09/11 05:28:14;;;;;;;22.55;17.60;;;;;;;14.57;77.75;100866.75;7397861;19;20035;-68
2023/09/11 05:30:42;;;;;;;22.88;17.10;;;;;;;14.61;77.63;100864.88;7397103;19;20503;-68
2023/09/11 05:33:17;;;;;;;20.33;16.63;;;;;;;14.65;77.73;100872.63;7394678;19;20018;-68
2023/09/11 05:35:46;;;;;;;18.88;16.48;;;;;;;14.69;77.59;100876.03;7395182;19;20148;-67
2023/09/11 05:38:15;;;;;;;24.70;17.60;;;;;;;14.74;77.65;100881.16;7393678;19;20078;-67
2023/09/11 05:40:46;;;;;;;22.23;17.80;;;;;;;14.77;77.86;100873.97;7394905;19;20010;-65
2023/09/11 05:43:14;;;;;;;22.65;18.33;;;;;;;14.82;77.59;100879.94;7395641;19;20481;-65
2023/09/11 05:45:44;;;;;;;20.27;17.20;;;;;;;14.88;77.78;100872.72;7394408;19;20074;-66
2023/09/11 05:48:12;;;;;;;20.27;17.92;;;;;;;14.94;77.69;100875.13;7394205;19;20066;-67
2023/09/11 05:50:41;;;;;;;21.13;17.13;;;;;;;14.99;77.82;100881.94;7394940;19;20018;-66
2023/09/11 05:53:09;;;;;;;22.23;17.90;;;;;;;15.06;77.65;100884.34;7396646;19;20082;-66
2023/09/11 05:55:38;;;;;;;23.75;17.48;;;;;;;15.11;77.73;100877.97;7393991;19;20031;-65
2023/09/11 05:58:38;;;;;;;19.98;16.73;;;;;;;15.17;77.44;100876.03;7396355;19;20026;-66
2023/09/11 06:01:07;;;;;;;21.55;16.75;;;;;;;15.25;77.50;100880.09;7394308;19;20550;-66
2023/09/11 06:03:36;;;;;;;18.65;16.40;;;;;;;15.31;77.31;100879.81;7395021;19;20021;-66
2023/09/11 06:06:05;;;;;;;18.50;16.20;;;;;;;15.39;77.26;100881.31;7394781;19;20109;-64
2023/09/11 06:08:33;;;;;;;21.30;16.38;;;;;;;15.45;77.21;100876.63;7393898;19;20026;-66
2023/09/11 06:11:02;;;;;;;19.95;16.88;;;;;;;15.52;76.84;100882.56;7395551;19;20496;-66
2023/09/11 06:13:31;;;;;;;18.90;16.90;;;;;;;15.61;76.79;100889.25;7393446;19;20351;-66
2023/09/11 06:16:02;;;;;;;23.00;17.75;;;;;;;15.68;76.55;100885.41;7393899;19;20022;-66
2023/09/11 06:18:30;;;;;;;20.52;17.08;;;;;;;15.75;76.59;100886.91;7392961;19;20359;-66
2023/09/11 06:20:59;;;;;;;21.35;18.67;;;;;;;15.84;76.56;100885.69;7392830;19;20529;-66
2023/09/11 06:23:27;;;;;;;21.38;19.17;;;;;;;15.93;76.28;100884.44;7392165;19;20018;-65
2023/09/11 06:25:56;;;;;;;20.63;17.48;;;;;;;16.01;75.88;100878.81;7393709;19;20014;-66
2023/09/11 06:28:24;;;;;;;22.95;18.00;;;;;;;16.07;75.81;100870.63;7395800;19;20028;-66
2023/09/11 06:30:53;;;;;;;19.85;16.83;;;;;;;16.15;76.04;100878.22;7393595;19;20090;-66
2023/09/11 06:33:24;;;;;;;23.20;17.05;;;;;;;16.22;75.62;100877.91;7393766;19;20077;-67
2023/09/11 06:35:52;;;;;;;19.45;17.35;;;;;;;16.31;75.50;100876.63;7393878;19;20534;-67
2023/09/11 06:38:21;;;;;;;20.92;17.40;;;;;;;16.38;75.40;100875.47;7393269;19;20087;-67
2023/09/11 06:40:49;;;;;;;23.15;18.25;;;;;;;16.50;75.02;100876.69;7394904;19;20469;-67
2023/09/11 06:43:18;;;;;;;19.52;17.42;;;;;;;16.59;74.95;100873.66;7392842;19;20087;-67
2023/09/11 06:45:46;;;;;;;19.88;17.83;;;;;;;16.69;74.71;100874.06;7392367;19;20015;-68
2023/09/11 06:48:15;;;;;;;19.83;17.73;;;;;;;16.78;74.91;100867.50;7393021;19;20035;-70
2023/09/11 06:50:46;;;;;;;18.92;16.92;;;;;;;16.88;74.57;100874.13;7394348;19;20017;-67
2023/09/11 06:53:14;;;;;;;21.02;17.45;;;;;;;16.96;74.46;100871.13;7393339;19;20014;-67
2023/09/11 06:55:46;;;;;;;19.70;16.00;;;;;;;17.05;74.15;100869.84;7391987;19;20015;-66
2023/09/11 06:58:15;;;;;;;18.77;16.98;;;;;;;17.16;73.96;100869.31;7392875;19;20007;-67
2023/09/11 07:00:44;;;;;;;25.65;16.35;;;;;;;17.26;74.09;100867.94;7392232;19;20011;-67
2023/09/11 07:03:12;;;;;;;19.55;17.05;;;;;;;17.35;73.79;100864.88;7392711;19;20042;-67
2023/09/11 07:05:41;;;;;;;18.88;16.85;;;;;;;17.45;73.72;100861.78;7392172;19;20074;-67
2023/09/11 07:08:12;;;;;;;20.38;16.63;;;;;;;17.53;73.64;100862.28;7392074;19;20082;-66
2023/09/11 07:10:40;;;;;;;19.08;17.02;;;;;;;17.63;73.03;100863.53;7395294;19;20086;-66
2023/09/11 07:13:10;;;;;;;18.67;16.02;;;;;;;17.72;73.23;100865.72;7393033;19;20078;-67
2023/09/11 07:15:38;;;;;;;16.55;14.85;;;;;;;17.83;72.70;100874.94;7391870;19;20121;-66
2023/09/11 07:18:07;;;;;;;18.02;16.20;;;;;;;17.92;72.70;100872.69;7391494;19;20433;-66
2023/09/11 07:20:36;;;;;;;18.42;14.57;;;;;;;18.01;72.84;100860.78;7392771;19;20082;-66
2023/09/11 07:23:04;;;;;;;17.05;15.20;;;;;;;18.12;72.31;100869.97;7394019;19;20070;-66
2023/09/11 07:25:35;;;;;;;20.17;15.02;;;;;;;18.21;72.18;100866.84;7391090;19;20096;-66
2023/09/11 07:28:03;;;;;;;16.92;15.13;;;;;;;18.30;72.09;100870.81;7392460;19;20074;-68
2023/09/11 07:30:32;;;;;;;15.80;13.93;;;;;;;18.39;71.62;100868.53;7391588;19;20074;-67
2023/09/11 07:33:00;;;;;;;18.90;14.43;;;;;;;18.50;71.42;100872.41;7393688;19;20036;-67
2023/09/11 07:35:29;;;;;;;19.48;16.27;;;;;;;18.59;70.95;100873.72;7392624;19;20082;-67
2023/09/11 07:37:57;;;;;;;19.02;14.25;;;;;;;18.67;70.93;100864.41;7390565;19;20536;-67
2023/09/11 07:40:26;;;;;;;16.60;13.60;;;;;;;18.78;71.07;100874.47;7391061;19;20411;-67
2023/09/11 07:42:57;;;;;;;19.55;15.18;;;;;;;18.87;70.70;100870.47;7391621;19;20078;-66
2023/09/11 07:45:25;;;;;;;16.50;14.70;;;;;;;18.97;70.50;100873.47;7390970;19;20078;-66
2023/09/11 07:47:54;;;;;;;17.20;14.02;;;;;;;19.07;70.39;100869.41;7390919;19;20541;-68
2023/09/11 07:50:22;;;;;;;15.63;12.80;;;;;;;19.17;70.42;100873.25;7391153;19;20090;-65
2023/09/11 07:52:51;;;;;;;17.33;13.20;;;;;;;19.27;69.57;100870.94;7390786;19;20367;-66
2023/09/11 07:55:20;;;;;;;13.10;11.50;;;;;;;19.40;69.75;100872.88;7391179;19;20011;-67
2023/09/11 07:57:48;;;;;;;13.82;12.15;;;;;;;19.51;69.02;100863.38;7393121;19;20018;-66
2023/09/11 08:00:19;;;;;;;12.68;11.40;;;;;;;19.63;68.75;100871.59;7390673;19;20066;-67
2023/09/11 08:02:48;;;;;;;13.20;11.80;;;;;;;19.73;68.54;100867.44;7394795;19;20529;-68
2023/09/11 08:05:17;;;;;;;15.88;13.00;;;;;;;19.84;67.95;100866.81;7398334;19;20503;-67
2023/09/11 08:07:45;;;;;;;15.88;12.07;;;;;;;19.94;67.99;100861.81;7397560;19;20155;-67
2023/09/11 08:10:14;;;;;;;13.50;12.10;;;;;;;20.05;67.65;100855.88;7396944;19;20431;-67
2023/09/11 08:12:42;;;;;;;13.13;11.73;;;;;;;20.16;67.80;100858.75;7397043;19;20091;-67
2023/09/11 08:15:12;;;;;;;12.35;11.05;;;;;;;20.25;67.91;100850.19;7398931;19;20023;-67
2023/09/11 08:17:43;;;;;;;12.05;10.85;;;;;;;20.35;67.74;100851.34;7397168;19;20019;-67
2023/09/11 08:20:12;;;;;;;11.77;10.55;;;;;;;20.47;67.69;100846.19;7398152;19;20090;-67
2023/09/11 08:22:42;;;;;;;14.13;11.45;;;;;;;20.58;67.02;100856.22;7397661;19;20078;-68
2023/09/11 08:25:12;;;;;;;12.07;10.82;;;;;;;20.69;66.75;100848.41;7397812;19;20014;-66
2023/09/11 08:27:40;;;;;;;12.85;11.05;;;;;;;20.81;66.47;100857.44;7397994;19;20010;-66
2023/09/11 08:30:10;;;;;;;13.63;10.60;;;;;;;20.91;66.26;100853.25;7400005;19;20379;-67
2023/09/11 08:32:38;;;;;;;12.50;10.38;;;;;;;21.01;65.88;100852.69;7397536;19;20066;-67
2023/09/11 08:35:10;;;;;;;13.93;10.35;;;;;;;21.11;65.96;100845.78;7397750;19;20015;-67
2023/09/11 08:37:38;;;;;;;13.20;9.70;;;;;;;21.21;65.34;100854.91;7396677;19;20025;-66
2023/09/11 08:40:08;;;;;;;13.02;9.68;;;;;;;21.32;65.35;100857.72;7396961;19;20086;-67
2023/09/11 08:42:37;;;;;;;12.95;10.23;;;;;;;21.43;64.57;100849.03;7396893;19;20074;-66
2023/09/11 08:45:06;;;;;;;10.70;9.38;;;;;;;21.53;64.47;100849.25;7396619;19;20014;-67
2023/09/11 08:47:36;;;;;;;15.60;10.20;;;;;;;21.63;64.21;100853.09;7396492;19;20478;-66
2023/09/11 08:50:12;;;;;;;12.20;9.75;;;;;;;21.77;63.60;100857.50;7396540;19;20011;-66
2023/09/11 08:52:42;;;;;;;13.10;9.88;;;;;;;21.91;63.16;100858.38;7397464;19;20025;-66
2023/09/11 08:55:12;;;;;;;12.05;9.20;;;;;;;22.01;62.80;100846.09;7395689;19;20017;-66
2023/09/11 08:57:44;;;;;;;10.00;9.02;;;;;;;22.14;62.46;100848.78;7396299;19;20072;-67
2023/09/11 09:00:13;;;;;;;8.95;8.07;;;;;;;22.25;62.44;100850.72;7395647;19;20007;-67
2023/09/11 09:02:43;;;;;;;11.23;8.73;;;;;;;22.36;61.51;100849.97;7396660;19;20014;-66
2023/09/11 09:05:16;;;;;;;10.13;8.52;;;;;;;22.48;61.17;100849.13;7396068;19;20011;-67
2023/09/11 09:07:46;;;;;;;11.07;8.63;;;;;;;22.60;60.95;100856.28;7397600;19;20430;-67
2023/09/11 09:10:14;;;;;;;9.88;8.52;;;;;;;22.71;60.79;100846.63;7395792;19;20010;-69
2023/09/11 09:12:43;;;;;;;9.93;7.88;;;;;;;22.82;59.85;100849.41;7394701;19;20018;-69
2023/09/11 09:15:13;;;;;;;8.68;7.50;;;;;;;22.94;59.97;100842.31;7395558;19;20017;-69
2023/09/11 09:17:41;;;;;;;16.92;7.95;;;;;;;23.04;59.63;100843.34;7397052;19;20082;-69
2023/09/11 09:20:16;;;;;;;9.32;8.30;;;;;;;23.16;59.09;100833.59;7397302;19;20018;-69
2023/09/11 09:22:54;;;;;;;10.07;7.55;;;;;;;23.28;58.60;100837.22;7397501;19;20014;-69
2023/09/11 09:25:23;;;;;;;12.75;6.88;;;;;;;23.38;58.21;100832.88;7395314;19;20010;-69
2023/09/11 09:27:52;;;;;;;10.73;7.40;;;;;;;23.48;57.49;100833.03;7394854;19;20082;-68
2023/09/11 09:30:21;;;;;;;7.38;6.68;;;;;;;23.61;57.65;100832.09;7396790;19;20032;-68
2023/09/11 09:32:51;;;;;;;8.80;6.90;;;;;;;23.71;57.14;100830.47;7395012;19;20014;-68
2023/09/11 09:35:23;;;;;;;10.75;7.10;;;;;;;23.83;56.76;100824.13;7394812;19;20027;-70
2023/09/11 09:37:53;;;;;;;9.68;7.80;;;;;;;23.95;56.21;100817.03;7394608;19;20091;-68
2023/09/11 09:40:35;;;;;;;7.80;6.88;;;;;;;24.11;54.97;100811.31;7394620;19;20091;-67
2023/09/11 09:43:06;;;;;;;8.13;7.00;;;;;;;24.21;55.27;100817.69;7395277;19;20018;-68
2023/09/11 09:45:37;;;;;;;9.13;6.13;;;;;;;24.32;54.34;100813.31;7393952;19;20330;-68
2023/09/11 09:48:10;;;;;;;8.25;6.32;;;;;;;24.43;54.04;100802.59;7395009;19;20010;-71
2023/09/11 09:51:05;;;;;;;7.68;6.50;;;;;;;24.53;53.85;100803.56;7395082;19;20081;-69
2023/09/11 09:53:35;;;;;;;8.80;6.35;;;;;;;24.64;53.35;100800.03;7395999;19;20010;-70
2023/09/11 09:56:07;;;;;;;6.82;6.13;;;;;;;24.74;53.17;100797.44;7395389;19;20022;-68
2023/09/11 09:58:37;;;;;;;7.72;5.47;;;;;;;24.86;52.83;100791.09;7396134;19;20038;-69
2023/09/11 10:01:08;;;;;;;7.13;6.07;;;;;;;24.98;52.31;100793.75;7394695;19;20074;-69
2023/09/11 10:03:45;;;;;;;7.82;5.75;;;;;;;25.06;51.47;100785.94;7396155;19;20573;-69
2023/09/11 10:06:21;;;;;;;6.45;5.57;;;;;;;25.17;50.85;100776.97;7394065;19;20410;-69
2023/09/11 10:08:50;;;;;;;6.63;5.10;;;;;;;25.27;50.60;100777.06;7393458;19;20419;-69
2023/09/11 10:11:29;;;;;;;7.53;5.20;;;;;;;25.37;49.56;100772.66;7393904;19;20018;-70
2023/09/11 10:13:59;;;;;;;6.05;4.95;;;;;;;25.47;49.31;100775.44;7393272;19;20486;-68
2023/09/11 10:16:30;;;;;;;6.70;4.93;;;;;;;25.54;48.66;100776.63;7393124;19;20018;-69
2023/09/11 10:19:00;;;;;;;7.68;4.93;;;;;;;25.61;48.17;100775.09;7395268;19;20011;-70
2023/09/11 10:21:32;;;;;;;5.57;4.65;;;;;;;25.72;46.99;100770.63;7395992;19;20009;-68
2023/09/11 10:24:00;;;;;;;7.18;4.65;;;;;;;25.78;46.87;100762.06;7395807;19;20031;-69
2023/09/11 10:26:35;;;;;;;6.55;4.50;;;;;;;25.86;46.11;100764.94;7392667;19;20542;-70
2023/09/11 10:29:06;;;;;;;9.00;5.43;;;;;;;25.95;45.73;100760.59;7393105;19;20031;-69
2023/09/11 10:31:42;;;;;;;5.07;4.63;;;;;;;26.04;45.57;100762.50;7395461;19;20028;-69
2023/09/11 10:34:13;;;;;;;5.63;5.07;;;;;;;26.14;45.19;100751.81;7392698;19;20394;-69
2023/09/11 10:36:48;;;;;;;13.98;6.40;;;;;;;26.22;45.01;100756.53;7393053;19;20018;-69
2023/09/11 10:39:19;;;;;;;8.82;4.65;;;;;;;26.28;44.92;100751.44;7393466;19;20017;-71
2023/09/11 10:41:48;;;;;;;6.55;5.10;;;;;;;26.36;44.78;100747.22;7396896;19;20011;-68
2023/09/11 10:44:17;;;;;;;5.55;4.63;;;;;;;26.44;43.72;100750.09;7393874;19;20082;-68
2023/09/11 10:46:50;;;;;;;6.25;4.78;;;;;;;26.52;43.62;100746.72;7393033;19;20021;-70
2023/09/11 10:49:17;;;;;;;;;;;;;;;26.58;43.10;100741.63;7394311;19;20077;-68
2023/09/11 10:51:48;;;;;;;7.25;5.25;;;;;;;26.67;43.58;100745.34;7394491;19;19914;-68
2023/09/11 10:54:18;;;;;;;4.97;4.45;;;;;;;26.75;43.00;100740.13;7391160;19;20007;-69
2023/09/11 10:56:46;;;;;;;10.43;4.82;;;;;;;26.85;42.58;100739.31;7391838;19;20014;-69
2023/09/11 10:59:17;;;;;;;6.50;4.68;;;;;;;26.92;41.38;100737.78;7391844;19;20074;-69
2023/09/11 11:01:47;;;;;;;9.73;4.85;;;;;;;26.99;41.54;100738.88;7393942;19;20090;-69
2023/09/11 11:04:19;;;;;;;7.95;5.55;;;;;;;27.06;41.00;100733.81;7393249;19;20075;-69
2023/09/11 11:06:51;;;;;;;8.93;4.80;;;;;;;27.12;41.04;100728.69;7391435;19;20537;-69
2023/09/11 11:09:27;;;;;;;6.60;4.55;;;;;;;27.19;40.63;100720.06;7391965;19;20034;-69
2023/09/11 11:11:59;;;;;;;10.75;4.43;;;;;;;27.26;40.32;100729.25;7390856;19;20011;-70
2023/09/11 11:14:27;;;;;;;9.82;5.03;;;;;;;27.31;40.27;100721.63;7390514;19;20070;-69
2023/09/11 11:16:56;;;;;;;11.38;6.38;;;;;;;27.38;40.10;100711.94;7392128;19;20018;-70
2023/09/11 11:19:30;;;;;;;7.38;4.80;;;;;;;27.46;39.13;100714.81;7391914;19;20011;-69
2023/09/11 11:22:01;;;;;;;;;;;;;;;27.51;40.19;100714.34;7395048;19;20018;-70
2023/09/11 11:24:34;;;;;;;4.78;4.25;;;;;;;27.56;39.62;100711.25;7393071;19;19919;-68
2023/09/11 11:27:04;;;;;;;10.13;5.22;;;;;;;27.61;39.35;100712.53;7390250;19;20010;-70